Galesburg, Illinois
Current Conditions -  °F | °C
As of 3:15 PM on Tuesday 21 Oct 2014 (Local Time) from KGBG Reporting Station
Clear Clear  
Wind Chill: 59°   Ceiling: Unl
Heat Index: 59°   Visibility: 10mi
Dew Point: 39°   Wind: 8mph
Humidity: 48%   Direction: 30°NNE
Pressure: 30.16"   Gusts: NA
Location:  40.95°N, 90.36°W
Report Text: KGBG 212015Z AUTO 03007KT 10SM CLR 15/04 A3016 RMK AO2 T01500041
Loading
Personal Weather Stations






























Interactive Weather Map
Tropical Storm Tracking
New forecast layout! Learn more

10-Day Weather Forecast

Advertisements
Track Severe Weather on mobile